Terminal Aerodrome Forecast
Issued by NWS

Home | Current Version | Previous Version | Text Only | Print | Product List | Glossary On
Versions: 1 2 3 4 5 6 7 8 9 10 11 12 13 14 15 16 17 18 19
000
FTUS46 KSEW 311735
TAFHQM
TAF
KHQM 311735Z 3118/0118 09006KT P6SM SCT250
     FM311900 27010KT P6SM SCT250
     FM011300 23008KT P6SM BKN011 OVC250=

USA.gov is the U.S. government's official web portal to all federal, state and local government web resources and services.